Time;durP1;ratioP1;P1;durP2;ratioP2;P2;SDS_P1;SDS_P2;PMS_P1;PMS_P2;Temp;Humidity;BMP_temperature;BMP_pressure;BME280_temperature;BME280_humidity;BME280_pressure;Samples;Min_cycle;Max_cycle;Signal;HPM_P1;HPM_P2
2022/01/14 00:01:36;;;;;;;5.18;2.63;;;;;;;;;;5072249;28;20012;-38
2022/01/14 00:04:01;;;;;;;7.43;3.25;;;;;;;;;;5072690;28;20463;-38
2022/01/14 00:06:26;;;;;;;8.00;3.38;;;;;;;;;;5072239;28;20035;-38
2022/01/14 00:09:00;;;;;;;4.45;2.95;;;;;;;;;;5072144;28;20647;-38
2022/01/14 00:11:29;;;;;;;9.23;3.03;;;;;;;;;;5072069;28;20032;-38
2022/01/14 00:13:56;;;;;;;5.75;3.42;;;;;;;;;;5071990;28;20039;-38
2022/01/14 00:16:22;;;;;;;10.07;4.35;;;;;;;;;;5072340;28;20059;-38
2022/01/14 00:18:47;;;;;;;3.42;2.28;;;;;;;;;;5072128;28;20056;-37
2022/01/14 00:21:13;;;;;;;4.70;2.08;;;;;;;;;;5071927;28;20612;-38
2022/01/14 00:23:40;;;;;;;7.35;3.13;;;;;;;;;;5072246;28;20080;-38
2022/01/14 00:31:53;;;;;;;4.60;2.83;;;;;;;;;;5087278;28;20037;-38
2022/01/14 00:34:19;;;;;;;4.38;2.28;;;;;;;;;;5071719;28;20082;-38
2022/01/14 00:36:45;;;;;;;7.05;3.72;;;;;;;;;;5072005;28;20020;-38
2022/01/14 00:39:12;;;;;;;5.07;3.05;;;;;;;;;;5087263;28;20127;-38
2022/01/14 00:41:38;;;;;;;9.25;2.97;;;;;;;;;;5071449;28;20066;-38
2022/01/14 00:44:09;;;;;;;8.32;3.08;;;;;;;;;;5071720;28;20157;-38
2022/01/14 00:46:35;;;;;;;5.70;2.67;;;;;;;;;;5071571;28;20502;-38
2022/01/14 00:49:01;;;;;;;7.90;3.40;;;;;;;;;;5071736;28;20016;-38
2022/01/14 00:51:27;;;;;;;8.13;3.10;;;;;;;;;;5071659;28;20028;-38
2022/01/14 00:53:52;;;;;;;5.28;3.85;;;;;;;;;;5071453;28;20098;-38
2022/01/14 01:01:33;;;;;;;7.60;2.92;;;;;;;;;;5071670;28;20033;-38
2022/01/14 01:03:58;;;;;;;4.22;2.78;;;;;;;;;;5087041;28;20161;-38
2022/01/14 01:06:23;;;;;;;5.70;2.17;;;;;;;;;;5071381;28;20108;-38
2022/01/14 01:08:51;;;;;;;7.18;3.17;;;;;;;;;;5071623;28;20047;-37
2022/01/14 01:11:23;;;;;;;6.07;3.45;;;;;;;;;;5071328;28;20032;-37
2022/01/14 01:13:58;;;;;;;6.50;2.87;;;;;;;;;;5071248;28;20055;-38
2022/01/14 01:16:24;;;;;;;6.95;3.20;;;;;;;;;;5071519;28;20028;-38
2022/01/14 01:18:49;;;;;;;7.00;3.30;;;;;;;;;;5071232;28;20074;-38
2022/01/14 01:21:14;;;;;;;6.88;2.70;;;;;;;;;;5071170;28;20108;-38
2022/01/14 01:23:40;;;;;;;5.95;3.83;;;;;;;;;;5071055;28;20119;-38
2022/01/14 01:26:18;;;;;;;5.60;2.88;;;;;;;;;;5069786;28;20028;-38
2022/01/14 01:29:50;;;;;;;8.43;2.38;;;;;;;;;;5071475;28;20052;-38
2022/01/14 01:31:39;;;;;;;5.47;3.83;;;;;;;;;;5061884;28;20044;-38
2022/01/14 01:34:06;;;;;;;2.95;2.45;;;;;;;;;;5070945;28;20036;-38
2022/01/14 01:36:32;;;;;;;9.00;3.20;;;;;;;;;;5071147;28;20529;-38
2022/01/14 01:38:57;;;;;;;2.80;1.67;;;;;;;;;;5071409;28;20029;-38
2022/01/14 01:41:24;;;;;;;3.53;2.50;;;;;;;;;;5070756;28;20064;-38
2022/01/14 01:43:52;;;;;;;7.72;2.97;;;;;;;;;;5069696;28;20029;-38
2022/01/14 01:46:21;;;;;;;4.32;2.60;;;;;;;;;;5070914;28;20093;-38
2022/01/14 01:48:55;;;;;;;8.50;4.25;;;;;;;;;;5071316;28;20024;-38
2022/01/14 01:51:20;;;;;;;6.50;3.00;;;;;;;;;;5070734;28;20460;-38
2022/01/14 01:53:47;;;;;;;5.93;2.67;;;;;;;;;;5070881;28;20050;-38
2022/01/14 01:56:13;;;;;;;3.25;2.42;;;;;;;;;;5071248;28;20028;-38
2022/01/14 01:58:38;;;;;;;4.45;1.98;;;;;;;;;;5070760;28;20459;-38
2022/01/14 02:01:04;;;;;;;4.65;2.50;;;;;;;;;;5071040;28;20033;-38
2022/01/14 02:03:30;;;;;;;8.80;3.03;;;;;;;;;;5071014;28;20383;-38
2022/01/14 02:05:55;;;;;;;13.20;5.53;;;;;;;;;;5071965;28;20040;-38
2022/01/14 02:08:21;;;;;;;3.83;1.95;;;;;;;;;;5074835;28;20104;-38
2022/01/14 02:10:46;;;;;;;8.18;3.05;;;;;;;;;;5090116;28;20025;-38
2022/01/14 02:13:12;;;;;;;11.73;3.42;;;;;;;;;;5074741;28;20036;-38
2022/01/14 02:18:36;;;;;;;3.50;2.10;;;;;;;;;;5074598;28;20028;-37
2022/01/14 02:23:52;;;;;;;5.47;2.40;;;;;;;;;;5074323;28;20487;-38
2022/01/14 02:26:19;;;;;;;4.78;3.08;;;;;;;;;;5074266;28;20047;-38
2022/01/14 02:28:51;;;;;;;10.55;3.63;;;;;;;;;;5074494;28;20039;-37
2022/01/14 02:31:17;;;;;;;4.38;2.40;;;;;;;;;;5074118;28;20038;-38
2022/01/14 02:33:43;;;;;;;7.65;3.28;;;;;;;;;;5074026;28;20036;-38
2022/01/14 02:36:08;;;;;;;4.40;3.15;;;;;;;;;;5074056;28;20082;-37
2022/01/14 02:38:34;;;;;;;5.57;2.42;;;;;;;;;;5074324;28;20033;-38
2022/01/14 02:41:00;;;;;;;4.93;2.58;;;;;;;;;;5073999;28;20063;-38
2022/01/14 02:43:26;;;;;;;5.00;2.80;;;;;;;;;;5074112;28;20475;-38
2022/01/14 02:45:53;;;;;;;8.15;2.70;;;;;;;;;;5073957;28;20028;-38
2022/01/14 02:48:20;;;;;;;5.68;2.40;;;;;;;;;;5073848;28;20023;-38
2022/01/14 02:55:49;;;;;;;6.88;3.10;;;;;;;;;;5073811;28;20028;-38
2022/01/14 02:58:15;;;;;;;6.30;2.88;;;;;;;;;;5073934;28;20037;-41
2022/01/14 03:00:40;;;;;;;10.75;3.00;;;;;;;;;;5073546;28;20386;-38
2022/01/14 03:03:06;;;;;;;7.65;3.63;;;;;;;;;;5073935;28;20399;-38
2022/01/14 03:05:32;;;;;;;3.20;2.72;;;;;;;;;;5073487;28;20020;-37
2022/01/14 03:07:57;;;;;;;3.88;2.03;;;;;;;;;;5073432;28;20025;-37
2022/01/14 03:10:23;;;;;;;4.70;3.25;;;;;;;;;;5073652;28;20024;-40
2022/01/14 03:12:49;;;;;;;6.97;3.00;;;;;;;;;;5073249;28;20126;-38
2022/01/14 03:15:15;;;;;;;4.32;2.40;;;;;;;;;;5073456;28;20111;-38
2022/01/14 03:17:40;;;;;;;7.75;3.03;;;;;;;;;;5072403;28;20089;-38
2022/01/14 03:20:08;;;;;;;4.43;2.60;;;;;;;;;;5073118;28;20398;-38
2022/01/14 03:22:37;;;;;;;3.63;2.08;;;;;;;;;;5073206;28;20064;-38
2022/01/14 03:27:50;;;;;;;7.93;2.75;;;;;;;;;;5073443;28;20107;-38
2022/01/14 03:30:15;;;;;;;3.75;2.05;;;;;;;;;;5072986;28;20158;-38
2022/01/14 03:32:41;;;;;;;6.93;3.92;;;;;;;;;;5072923;28;20040;-38
2022/01/14 03:35:07;;;;;;;7.28;3.30;;;;;;;;;;5072927;28;20032;-38
2022/01/14 03:37:33;;;;;;;6.15;2.88;;;;;;;;;;5073168;28;20102;-38
2022/01/14 03:39:58;;;;;;;7.97;2.92;;;;;;;;;;5072868;28;20487;-38
2022/01/14 03:42:24;;;;;;;10.05;3.70;;;;;;;;;;5072767;28;20364;-38
2022/01/14 03:44:49;;;;;;;11.55;3.47;;;;;;;;;;5072802;28;20074;-43
2022/01/14 03:47:15;;;;;;;7.95;4.18;;;;;;;;;;5072708;28;20039;-38
2022/01/14 03:49:40;;;;;;;6.78;3.60;;;;;;;;;;5072606;28;20426;-38
2022/01/14 03:52:06;;;;;;;6.70;3.22;;;;;;;;;;5072621;28;20107;-38
2022/01/14 03:54:31;;;;;;;7.72;2.90;;;;;;;;;;5072708;28;20021;-38
2022/01/14 03:56:56;;;;;;;1.10;1.00;;;;;;;;;;5072787;28;20046;-37
2022/01/14 03:59:22;;;;;;;7.07;3.03;;;;;;;;;;5072400;28;20032;-38
2022/01/14 04:01:47;;;;;;;3.20;2.40;;;;;;;;;;5072356;28;20025;-38
2022/01/14 04:04:13;;;;;;;5.28;2.85;;;;;;;;;;5072488;28;20463;-38
2022/01/14 04:06:38;;;;;;;8.18;2.28;;;;;;;;;;5072513;28;20047;-38
2022/01/14 04:09:04;;;;;;;4.40;2.47;;;;;;;;;;5072309;28;20070;-38
2022/01/14 04:11:30;;;;;;;4.05;3.13;;;;;;;;;;5072162;28;20036;-38
2022/01/14 04:14:06;;;;;;;4.45;2.10;;;;;;;;;;5072346;28;20028;-38
2022/01/14 04:16:32;;;;;;;6.00;3.22;;;;;;;;;;5072395;28;20035;-38
2022/01/14 04:18:57;;;;;;;8.73;3.45;;;;;;;;;;5072240;28;20383;-38
2022/01/14 04:21:23;;;;;;;8.88;2.80;;;;;;;;;;5071971;28;20052;-38
2022/01/14 04:23:48;;;;;;;10.75;3.45;;;;;;;;;;5071985;28;20028;-38
2022/01/14 04:26:15;;;;;;;14.98;4.45;;;;;;;;;;5071866;28;20036;-38
2022/01/14 04:28:40;;;;;;;13.55;5.38;;;;;;;;;;5071548;28;20669;-37
2022/01/14 04:31:06;;;;;;;5.47;3.25;;;;;;;;;;5071768;28;20033;-37
2022/01/14 04:33:33;;;;;;;5.05;3.00;;;;;;;;;;5072025;28;20068;-43
2022/01/14 04:35:59;;;;;;;5.45;2.60;;;;;;;;;;5071854;28;20029;-38
2022/01/14 04:38:25;;;;;;;12.18;3.67;;;;;;;;;;5071571;28;20391;-38
2022/01/14 04:40:51;;;;;;;7.05;2.45;;;;;;;;;;5071618;28;20048;-38
2022/01/14 04:43:19;;;;;;;14.52;4.03;;;;;;;;;;5070344;28;20124;-38
2022/01/14 04:46:02;;;;;;;7.70;2.85;;;;;;;;;;5071831;28;20115;-38
2022/01/14 04:48:32;;;;;;;4.20;2.17;;;;;;;;;;5071839;28;20071;-38
2022/01/14 04:50:58;;;;;;;8.35;3.03;;;;;;;;;;5071503;28;20489;-38
2022/01/14 04:53:23;;;;;;;6.97;2.10;;;;;;;;;;5071275;28;20051;-38
2022/01/14 04:55:52;;;;;;;5.32;2.03;;;;;;;;;;5071539;28;20383;-38
2022/01/14 04:58:18;;;;;;;8.77;2.90;;;;;;;;;;5071494;28;20527;-38
2022/01/14 05:00:43;;;;;;;6.93;2.63;;;;;;;;;;5071622;28;20032;-38
2022/01/14 05:03:09;;;;;;;16.38;4.05;;;;;;;;;;5071427;28;20185;-38
2022/01/14 05:05:38;;;;;;;23.20;6.13;;;;;;;;;;5071331;28;20627;-38
2022/01/14 05:08:09;;;;;;;24.42;8.35;;;;;;;;;;5071453;28;20032;-38
2022/01/14 05:10:47;;;;;;;15.73;6.28;;;;;;;;;;5071331;28;20035;-38
2022/01/14 05:13:12;;;;;;;8.70;4.05;;;;;;;;;;5071202;28;20051;-38
2022/01/14 05:15:37;;;;;;;5.38;3.55;;;;;;;;;;5086784;28;20068;-38
2022/01/14 05:18:03;;;;;;;6.65;2.45;;;;;;;;;;5071576;28;20074;-38
2022/01/14 05:20:28;;;;;;;25.23;6.00;;;;;;;;;;5071137;28;20043;-38
2022/01/14 05:22:54;;;;;;;36.38;9.60;;;;;;;;;;5071270;28;20029;-38
2022/01/14 05:25:19;;;;;;;27.00;8.75;;;;;;;;;;5071460;28;20024;-38
2022/01/14 05:27:45;;;;;;;10.90;4.95;;;;;;;;;;5071147;28;20028;-38
2022/01/14 05:30:11;;;;;;;10.80;3.58;;;;;;;;;;5071354;28;20020;-38
2022/01/14 05:32:45;;;;;;;11.40;4.03;;;;;;;;;;5070983;28;20032;-38
2022/01/14 05:35:11;;;;;;;8.55;4.00;;;;;;;;;;5071344;28;20035;-38
2022/01/14 05:37:36;;;;;;;6.45;3.92;;;;;;;;;;5071295;28;20382;-38
2022/01/14 05:40:02;;;;;;;8.07;3.13;;;;;;;;;;5070954;28;20036;-38
2022/01/14 05:42:33;;;;;;;7.50;2.30;;;;;;;;;;5074754;28;20032;-38
2022/01/14 05:44:59;;;;;;;9.13;3.92;;;;;;;;;;5075078;28;20526;-37
2022/01/14 05:47:24;;;;;;;9.43;3.65;;;;;;;;;;5074992;28;20103;-42
2022/01/14 05:49:50;;;;;;;9.10;3.28;;;;;;;;;;5074920;28;20103;-38
2022/01/14 05:52:15;;;;;;;5.03;2.25;;;;;;;;;;5075177;28;20021;-38
2022/01/14 05:54:41;;;;;;;8.95;3.88;;;;;;;;;;5074722;28;20040;-37
2022/01/14 05:57:06;;;;;;;12.88;3.67;;;;;;;;;;5074829;28;20042;-38
2022/01/14 05:59:32;;;;;;;24.65;7.22;;;;;;;;;;5074683;28;20032;-37
2022/01/14 06:01:57;;;;;;;6.95;3.55;;;;;;;;;;5075016;28;20020;-38
2022/01/14 06:04:22;;;;;;;6.50;3.22;;;;;;;;;;5075017;28;20483;-38
2022/01/14 06:06:48;;;;;;;13.77;5.80;;;;;;;;;;5074551;28;20103;-37
2022/01/14 06:09:13;;;;;;;12.07;5.05;;;;;;;;;;5074590;28;20047;-38
2022/01/14 06:11:39;;;;;;;14.07;4.35;;;;;;;;;;5074416;28;20086;-38
2022/01/14 06:14:04;;;;;;;9.10;3.67;;;;;;;;;;5074694;28;20053;-39
2022/01/14 06:16:29;;;;;;;3.22;2.10;;;;;;;;;;5074460;28;20063;-38
2022/01/14 06:18:55;;;;;;;11.40;3.85;;;;;;;;;;5074316;28;20036;-38
2022/01/14 06:21:20;;;;;;;8.85;4.20;;;;;;;;;;5074650;28;20021;-40
2022/01/14 06:23:46;;;;;;;8.27;4.00;;;;;;;;;;5074325;28;20024;-38
2022/01/14 06:26:11;;;;;;;12.38;3.03;;;;;;;;;;5074596;28;20157;-38
2022/01/14 06:28:37;;;;;;;36.03;12.63;;;;;;;;;;5074483;28;20028;-38
2022/01/14 06:31:02;;;;;;;13.00;5.22;;;;;;;;;;5074442;28;20096;-38
2022/01/14 06:33:27;;;;;;;19.17;6.20;;;;;;;;;;5089694;28;20372;-37
2022/01/14 06:35:53;;;;;;;16.05;6.47;;;;;;;;;;5074472;28;20461;-38
2022/01/14 06:38:19;;;;;;;15.32;3.53;;;;;;;;;;5074069;28;20576;-37
2022/01/14 06:40:47;;;;;;;10.20;3.67;;;;;;;;;;5073731;28;20110;-37
2022/01/14 06:43:14;;;;;;;7.55;4.40;;;;;;;;;;5073989;28;20506;-38
2022/01/14 06:45:40;;;;;;;4.28;2.22;;;;;;;;;;5073810;28;20036;-37
2022/01/14 06:48:05;;;;;;;7.25;2.78;;;;;;;;;;5073943;28;20039;-38
2022/01/14 06:50:31;;;;;;;13.57;3.47;;;;;;;;;;5073464;28;20028;-38
2022/01/14 06:52:56;;;;;;;12.27;3.45;;;;;;;;;;5073491;28;20047;-37
2022/01/14 06:55:22;;;;;;;13.02;4.40;;;;;;;;;;5073875;28;20012;-38
2022/01/14 06:57:47;;;;;;;10.68;3.47;;;;;;;;;;5073603;28;20391;-38
2022/01/14 07:00:14;;;;;;;13.05;4.63;;;;;;;;;;5072455;28;20021;-37
2022/01/14 07:02:40;;;;;;;11.68;3.78;;;;;;;;;;5073804;28;20028;-37
2022/01/14 07:05:06;;;;;;;7.47;3.35;;;;;;;;;;5073653;28;20379;-37
2022/01/14 07:07:32;;;;;;;10.73;3.38;;;;;;;;;;5073785;28;20047;-38
2022/01/14 07:09:58;;;;;;;9.40;3.92;;;;;;;;;;5073486;28;20470;-38
2022/01/14 07:12:23;;;;;;;15.73;3.50;;;;;;;;;;5073448;28;20036;-40
2022/01/14 07:14:49;;;;;;;9.48;3.92;;;;;;;;;;5073572;28;20074;-37
2022/01/14 07:17:14;;;;;;;10.98;2.88;;;;;;;;;;5073423;28;20035;-37
2022/01/14 07:19:40;;;;;;;4.82;3.17;;;;;;;;;;5073316;28;20021;-37
2022/01/14 07:22:06;;;;;;;2.60;1.40;;;;;;;;;;5089127;28;20035;-37
2022/01/14 07:24:32;;;;;;;12.30;1.85;;;;;;;;;;5089122;28;20039;-37
2022/01/14 07:26:59;;;;;;;3.75;2.15;;;;;;;;;;5073433;28;20394;-37
2022/01/14 07:29:24;;;;;;;5.57;2.22;;;;;;;;;;5073380;28;20428;-38
2022/01/14 07:31:51;;;;;;;5.25;1.45;;;;;;;;;;5073048;28;20037;-37
2022/01/14 07:34:17;;;;;;;4.40;2.35;;;;;;;;;;5088752;28;20166;-37
2022/01/14 07:36:43;;;;;;;4.20;2.30;;;;;;;;;;5072923;28;20111;-37
2022/01/14 07:39:08;;;;;;;5.10;1.70;;;;;;;;;;5073215;28;20378;-39
2022/01/14 07:41:34;;;;;;;6.28;2.53;;;;;;;;;;5072635;28;20053;-37
2022/01/14 07:43:59;;;;;;;7.53;3.03;;;;;;;;;;5072858;28;20032;-37
2022/01/14 07:46:25;;;;;;;9.50;3.03;;;;;;;;;;5072855;28;20081;-37
2022/01/14 07:48:50;;;;;;;6.53;2.53;;;;;;;;;;5072696;28;20371;-37
2022/01/14 07:51:16;;;;;;;11.68;2.75;;;;;;;;;;5072634;28;20037;-37
2022/01/14 07:53:41;;;;;;;11.77;3.28;;;;;;;;;;5072425;28;20035;-38
2022/01/14 07:56:11;;;;;;;8.13;2.95;;;;;;;;;;5072919;28;20037;-37
2022/01/14 07:58:37;;;;;;;8.95;3.03;;;;;;;;;;5071121;28;20028;-37
2022/01/14 08:01:03;;;;;;;8.57;3.70;;;;;;;;;;5072734;28;20545;-37
2022/01/14 08:03:29;;;;;;;8.68;3.20;;;;;;;;;;5071805;28;20492;-38
2022/01/14 08:05:57;;;;;;;10.13;3.75;;;;;;;;;;5072663;28;20028;-37
2022/01/14 08:08:22;;;;;;;5.95;2.28;;;;;;;;;;5072399;28;20035;-38
2022/01/14 08:10:48;;;;;;;8.07;2.30;;;;;;;;;;5072097;28;20029;-37
2022/01/14 08:13:13;;;;;;;6.10;2.47;;;;;;;;;;5072493;28;20044;-37
2022/01/14 08:15:39;;;;;;;10.80;3.00;;;;;;;;;;5072249;28;20033;-37
2022/01/14 08:18:06;;;;;;;5.72;2.97;;;;;;;;;;5072117;28;20055;-37
2022/01/14 08:20:32;;;;;;;4.80;2.20;;;;;;;;;;5072166;28;20028;-39
2022/01/14 08:22:58;;;;;;;2.85;2.60;;;;;;;;;;5072347;28;20074;-37
2022/01/14 08:25:24;;;;;;;4.55;2.45;;;;;;;;;;5070664;28;20028;-37
2022/01/14 08:27:50;;;;;;;5.53;1.90;;;;;;;;;;5072228;28;20017;-38
2022/01/14 08:30:16;;;;;;;10.02;3.10;;;;;;;;;;5071889;28;20526;-37
2022/01/14 08:32:41;;;;;;;5.15;2.97;;;;;;;;;;5072061;28;20178;-38
2022/01/14 08:35:07;;;;;;;4.85;3.08;;;;;;;;;;5071766;28;20036;-37
2022/01/14 08:37:33;;;;;;;7.45;3.13;;;;;;;;;;5070500;28;20517;-38
2022/01/14 08:39:59;;;;;;;7.22;3.15;;;;;;;;;;5071570;28;20040;-38
2022/01/14 08:42:24;;;;;;;8.88;2.65;;;;;;;;;;5071813;28;20661;-37
2022/01/14 08:44:50;;;;;;;6.93;2.55;;;;;;;;;;5071905;28;20020;-37
2022/01/14 08:47:15;;;;;;;3.67;2.45;;;;;;;;;;5071564;28;20675;-37
2022/01/14 08:49:42;;;;;;;7.32;2.80;;;;;;;;;;5071538;28;20033;-37
2022/01/14 08:52:08;;;;;;;2.28;1.70;;;;;;;;;;5071882;28;20157;-37
2022/01/14 08:54:34;;;;;;;3.35;2.45;;;;;;;;;;5071664;28;20446;-37
2022/01/14 08:57:02;;;;;;;3.10;1.88;;;;;;;;;;5071618;28;20016;-37
2022/01/14 08:59:28;;;;;;;4.25;2.88;;;;;;;;;;5070282;28;20070;-38
2022/01/14 09:01:53;;;;;;;6.32;2.45;;;;;;;;;;5071362;28;20475;-37
2022/01/14 09:04:19;;;;;;;6.43;2.75;;;;;;;;;;5071493;28;20108;-37
2022/01/14 09:06:45;;;;;;;10.00;2.28;;;;;;;;;;5071351;28;20356;-37
2022/01/14 09:09:11;;;;;;;2.65;1.55;;;;;;;;;;5071341;28;20538;-38
2022/01/14 09:11:36;;;;;;;9.65;2.83;;;;;;;;;;5071534;28;20067;-38
2022/01/14 09:14:02;;;;;;;5.55;2.30;;;;;;;;;;5071256;28;20068;-37
2022/01/14 09:16:27;;;;;;;3.38;1.95;;;;;;;;;;5071510;28;20021;-38
2022/01/14 09:18:53;;;;;;;5.03;2.35;;;;;;;;;;5071234;28;20082;-38
2022/01/14 09:21:19;;;;;;;4.78;2.38;;;;;;;;;;5071284;28;20360;-37
2022/01/14 09:23:52;;;;;;;5.55;2.10;;;;;;;;;;5071445;28;20024;-38
2022/01/14 09:26:18;;;;;;;6.32;3.65;;;;;;;;;;5071183;28;20463;-42
2022/01/14 09:28:44;;;;;;;3.50;2.15;;;;;;;;;;5071120;28;20020;-37
2022/01/14 09:31:09;;;;;;;5.88;2.92;;;;;;;;;;5071067;28;20037;-38
2022/01/14 09:33:37;;;;;;;3.55;1.95;;;;;;;;;;5071269;28;20044;-37
2022/01/14 09:36:04;;;;;;;5.55;3.03;;;;;;;;;;5071106;28;20060;-38
2022/01/14 09:38:30;;;;;;;3.17;1.88;;;;;;;;;;5070989;28;20021;-38
2022/01/14 09:40:56;;;;;;;4.20;2.13;;;;;;;;;;5070987;28;20051;-38
2022/01/14 09:43:21;;;;;;;3.00;1.33;;;;;;;;;;5070973;28;20028;-37
2022/01/14 09:45:49;;;;;;;3.05;1.77;;;;;;;;;;5071006;28;20042;-37
2022/01/14 09:48:15;;;;;;;4.38;2.05;;;;;;;;;;5071333;28;20035;-38
2022/01/14 09:50:41;;;;;;;5.88;2.22;;;;;;;;;;5071259;28;20104;-37
2022/01/14 09:53:06;;;;;;;3.65;1.42;;;;;;;;;;5070902;28;20135;-38
2022/01/14 09:55:32;;;;;;;2.22;1.33;;;;;;;;;;5071153;28;20031;-37
2022/01/14 09:57:59;;;;;;;1.23;1.13;;;;;;;;;;5086492;28;20051;-37
2022/01/14 10:00:25;;;;;;;2.22;1.77;;;;;;;;;;5070905;28;20040;-37
2022/01/14 10:02:51;;;;;;;0.85;0.82;;;;;;;;;;5071062;28;20024;-38
2022/01/14 10:05:37;;;;;;;2.38;2.17;;;;;;;;;;5070765;28;20505;-38
2022/01/14 10:08:23;;;;;;;3.03;1.65;;;;;;;;;;5070790;28;20064;-38
2022/01/14 10:10:59;;;;;;;2.35;1.60;;;;;;;;;;5070689;28;20058;-38
2022/01/14 10:13:26;;;;;;;2.38;1.35;;;;;;;;;;5071067;28;20052;-37
2022/01/14 10:15:53;;;;;;;4.90;0.95;;;;;;;;;;5070962;28;20527;-37
2022/01/14 10:18:20;;;;;;;2.38;1.10;;;;;;;;;;5070730;28;20556;-38
2022/01/14 10:20:46;;;;;;;1.25;1.15;;;;;;;;;;5070630;28;20078;-38
2022/01/14 10:23:12;;;;;;;3.80;1.77;;;;;;;;;;5070947;28;20039;-38
2022/01/14 10:25:40;;;;;;;2.10;1.40;;;;;;;;;;5070861;28;20024;-38
2022/01/14 10:28:19;;;;;;;1.30;1.05;;;;;;;;;;5073520;28;20024;-38
2022/01/14 10:30:45;;;;;;;1.75;1.65;;;;;;;;;;5074442;28;20423;-37
2022/01/14 10:33:11;;;;;;;6.60;2.42;;;;;;;;;;5074129;28;20086;-37
2022/01/14 10:35:41;;;;;;;1.38;1.20;;;;;;;;;;5074167;28;20063;-37
2022/01/14 10:38:07;;;;;;;1.92;1.00;;;;;;;;;;5074220;28;20036;-37
2022/01/14 10:40:35;;;;;;;3.63;1.98;;;;;;;;;;5073905;28;20045;-37
2022/01/14 10:43:02;;;;;;;1.15;1.00;;;;;;;;;;5074298;28;20029;-37
2022/01/14 10:45:29;;;;;;;3.25;1.35;;;;;;;;;;5073971;28;20033;-37
2022/01/14 10:48:02;;;;;;;3.33;1.48;;;;;;;;;;5073889;28;20056;-38
2022/01/14 10:50:46;;;;;;;1.13;1.00;;;;;;;;;;5074120;28;20032;-37
2022/01/14 10:53:16;;;;;;;2.78;1.10;;;;;;;;;;5074067;28;20036;-37
2022/01/14 10:55:43;;;;;;;6.85;1.80;;;;;;;;;;5073603;28;20029;-37
2022/01/14 10:58:13;;;;;;;1.98;1.02;;;;;;;;;;5073848;28;20020;-39
2022/01/14 11:00:49;;;;;;;2.50;1.50;;;;;;;;;;5073572;28;20070;-37
2022/01/14 11:03:15;;;;;;;2.95;1.55;;;;;;;;;;5073645;28;20041;-37
2022/01/14 11:05:42;;;;;;;4.30;1.27;;;;;;;;;;5073513;28;20059;-37
2022/01/14 11:08:08;;;;;;;2.42;1.40;;;;;;;;;;5073911;28;20032;-38
2022/01/14 11:10:35;;;;;;;2.25;1.63;;;;;;;;;;5073473;28;20024;-38
2022/01/14 11:13:01;;;;;;;1.20;1.10;;;;;;;;;;5073403;28;20032;-37
2022/01/14 11:15:28;;;;;;;0.82;0.77;;;;;;;;;;5073477;28;20016;-38
2022/01/14 11:17:56;;;;;;;4.20;1.00;;;;;;;;;;5073564;28;20036;-37
2022/01/14 11:20:30;;;;;;;2.70;1.00;;;;;;;;;;5073304;28;20013;-38
2022/01/14 11:23:15;;;;;;;1.63;1.25;;;;;;;;;;5073206;28;20123;-37
2022/01/14 11:25:43;;;;;;;4.07;1.02;;;;;;;;;;5073275;28;20040;-37
2022/01/14 11:28:09;;;;;;;0.95;0.75;;;;;;;;;;5073174;28;20013;-37
2022/01/14 11:30:37;;;;;;;1.40;0.98;;;;;;;;;;5073284;28;20431;-38
2022/01/14 11:33:03;;;;;;;1.92;1.25;;;;;;;;;;5072988;28;20038;-37
2022/01/14 11:35:29;;;;;;;1.45;1.13;;;;;;;;;;5072998;28;20098;-38
2022/01/14 11:37:55;;;;;;;1.50;1.15;;;;;;;;;;5072604;28;20024;-38
2022/01/14 11:40:21;;;;;;;2.05;0.93;;;;;;;;;;5072416;28;20045;-38
2022/01/14 11:42:46;;;;;;;2.58;1.42;;;;;;;;;;5072907;28;20036;-37
2022/01/14 11:45:16;;;;;;;1.20;0.90;;;;;;;;;;5073155;28;20476;-37
2022/01/14 11:47:44;;;;;;;3.25;1.75;;;;;;;;;;5072688;28;20107;-37
2022/01/14 11:50:19;;;;;;;2.38;1.48;;;;;;;;;;5072782;28;20162;-38
2022/01/14 11:52:46;;;;;;;1.52;0.90;;;;;;;;;;5088143;28;20040;-38
2022/01/14 11:55:15;;;;;;;2.25;1.33;;;;;;;;;;5072715;28;20024;-38
2022/01/14 11:57:45;;;;;;;3.80;1.23;;;;;;;;;;5072567;28;20031;-38
2022/01/14 12:00:38;;;;;;;1.65;1.23;;;;;;;;;;5072562;28;20025;-37
2022/01/14 12:03:06;;;;;;;0.60;0.60;;;;;;;;;;5068032;28;20051;-37
2022/01/14 12:05:31;;;;;;;1.70;0.90;;;;;;;;;;5072712;28;20028;-37
2022/01/14 12:10:29;;;;;;;0.95;0.95;;;;;;;;;;5072368;28;20036;-38
2022/01/14 12:13:26;;;;;;;1.15;1.02;;;;;;;;;;5072095;28;20037;-38
2022/01/14 12:16:02;;;;;;;1.67;1.13;;;;;;;;;;5035658;28;20187;-38
2022/01/14 12:18:45;;;;;;;1.15;0.80;;;;;;;;;;5072153;28;20036;-37
2022/01/14 12:21:15;;;;;;;0.47;0.47;;;;;;;;;;5071896;28;20611;-38
2022/01/14 12:23:41;;;;;;;1.38;1.23;;;;;;;;;;5072098;28;20028;-38
2022/01/14 12:26:17;;;;;;;1.88;1.17;;;;;;;;;;5072137;28;20036;-37
2022/01/14 12:28:44;;;;;;;0.95;0.60;;;;;;;;;;5071929;28;20033;-37
2022/01/14 12:31:10;;;;;;;1.67;1.20;;;;;;;;;;5072229;28;20020;-38
2022/01/14 12:33:40;;;;;;;1.30;1.10;;;;;;;;;;5072030;28;20545;-38
2022/01/14 12:36:13;;;;;;;2.33;1.40;;;;;;;;;;5071838;28;20133;-37
2022/01/14 12:38:38;;;;;;;;;;;;;;;;;;5087810;28;20033;-37
2022/01/14 12:41:03;;;;;;;4.28;1.80;;;;;;;;;;5071636;28;20259;-37
2022/01/14 12:43:30;;;;;;;3.80;1.35;;;;;;;;;;5072022;28;20028;-37
2022/01/14 12:46:24;;;;;;;2.00;1.13;;;;;;;;;;5072009;28;20047;-38
2022/01/14 12:48:51;;;;;;;2.47;1.67;;;;;;;;;;5071807;28;20040;-37
2022/01/14 12:51:18;;;;;;;1.98;1.33;;;;;;;;;;5071755;28;20024;-38
2022/01/14 12:53:47;;;;;;;0.88;0.88;;;;;;;;;;5071405;28;20032;-38
2022/01/14 12:56:17;;;;;;;1.90;1.23;;;;;;;;;;5071784;28;20024;-38
2022/01/14 12:58:53;;;;;;;4.20;1.33;;;;;;;;;;5071464;28;20035;-37
2022/01/14 13:01:24;;;;;;;1.52;1.38;;;;;;;;;;5071580;28;20024;-38
2022/01/14 13:03:50;;;;;;;4.90;1.70;;;;;;;;;;5071359;28;20025;-38
2022/01/14 13:06:15;;;;;;;4.97;1.70;;;;;;;;;;5071758;28;20093;-37
2022/01/14 13:08:41;;;;;;;3.78;2.42;;;;;;;;;;5071252;28;20032;-38
2022/01/14 13:11:07;;;;;;;3.58;1.73;;;;;;;;;;5071633;28;20031;-37
2022/01/14 13:13:32;;;;;;;2.92;1.40;;;;;;;;;;5071260;28;20047;-37
2022/01/14 13:16:03;;;;;;;3.50;1.55;;;;;;;;;;5071412;28;20012;-37
2022/01/14 13:18:33;;;;;;;5.95;1.70;;;;;;;;;;5071204;28;20395;-37
2022/01/14 13:20:59;;;;;;;3.10;1.55;;;;;;;;;;5071558;28;20039;-38
2022/01/14 13:23:26;;;;;;;1.67;1.17;;;;;;;;;;5071349;28;20453;-38
2022/01/14 13:25:51;;;;;;;3.25;1.33;;;;;;;;;;5071222;28;20034;-38
2022/01/14 13:28:19;;;;;;;2.35;1.38;;;;;;;;;;5086755;28;20099;-37
2022/01/14 13:30:44;;;;;;;2.10;1.15;;;;;;;;;;5071113;28;20008;-38
2022/01/14 13:33:12;;;;;;;2.97;1.23;;;;;;;;;;5071309;28;20047;-38
2022/01/14 13:35:47;;;;;;;3.60;2.25;;;;;;;;;;5071030;28;20028;-38
2022/01/14 13:38:14;;;;;;;3.05;1.23;;;;;;;;;;5071053;28;20035;-37
2022/01/14 13:40:43;;;;;;;1.42;0.88;;;;;;;;;;5071002;28;20056;-38
2022/01/14 13:43:10;;;;;;;1.52;1.00;;;;;;;;;;5071207;28;20028;-38
2022/01/14 13:45:36;;;;;;;2.20;1.42;;;;;;;;;;5070920;28;20483;-37
2022/01/14 13:48:10;;;;;;;3.42;1.38;;;;;;;;;;5071387;28;20043;-38
2022/01/14 13:50:42;;;;;;;4.72;2.20;;;;;;;;;;5069668;28;20384;-38
2022/01/14 13:53:09;;;;;;;4.63;1.33;;;;;;;;;;5070931;28;20041;-38
2022/01/14 13:55:39;;;;;;;1.38;1.00;;;;;;;;;;5071142;28;20043;-38
2022/01/14 13:58:06;;;;;;;5.00;1.58;;;;;;;;;;5071254;28;20442;-38
2022/01/14 14:00:33;;;;;;;5.40;2.03;;;;;;;;;;5070769;28;20437;-37
2022/01/14 14:02:59;;;;;;;4.22;1.63;;;;;;;;;;5074069;28;20039;-38
2022/01/14 14:05:38;;;;;;;1.90;1.38;;;;;;;;;;5090433;28;20025;-38
2022/01/14 14:16:59;;;;;;;3.60;1.05;;;;;;;;;;5074772;28;20051;-38
2022/01/14 14:19:27;;;;;;;2.20;1.90;;;;;;;;;;5074424;28;20032;-38
2022/01/14 14:22:06;;;;;;;2.80;1.27;;;;;;;;;;5074273;28;20028;-38
2022/01/14 14:24:54;;;;;;;3.15;0.80;;;;;;;;;;5074422;28;20040;-38
2022/01/14 14:27:20;;;;;;;3.97;1.58;;;;;;;;;;5074629;28;20581;-39
2022/01/14 14:29:48;;;;;;;2.53;1.13;;;;;;;;;;5074271;28;20052;-38
2022/01/14 14:32:15;;;;;;;5.95;1.90;;;;;;;;;;5089800;28;20035;-38
2022/01/14 14:34:41;;;;;;;2.47;1.10;;;;;;;;;;5074019;28;20119;-39
2022/01/14 14:37:08;;;;;;;5.35;1.20;;;;;;;;;;5074392;28;20090;-38
2022/01/14 14:39:34;;;;;;;4.20;1.58;;;;;;;;;;5073804;28;20009;-38
2022/01/14 14:42:00;;;;;;;1.60;1.27;;;;;;;;;;5074085;28;20127;-38
2022/01/14 14:44:25;;;;;;;2.88;1.35;;;;;;;;;;5074226;28;20115;-40
2022/01/14 14:46:51;;;;;;;2.47;1.70;;;;;;;;;;5072734;28;20550;-38
2022/01/14 14:49:17;;;;;;;3.17;1.40;;;;;;;;;;5073963;28;20024;-38
2022/01/14 14:51:43;;;;;;;3.33;2.00;;;;;;;;;;5073839;28;20123;-38
2022/01/14 14:54:11;;;;;;;5.43;1.33;;;;;;;;;;5074082;28;20115;-37
2022/01/14 14:56:37;;;;;;;2.83;1.55;;;;;;;;;;5073614;28;20090;-38
2022/01/14 14:59:03;;;;;;;2.47;1.38;;;;;;;;;;5073819;28;20024;-38
2022/01/14 15:01:29;;;;;;;3.17;1.98;;;;;;;;;;5074001;28;20122;-38
2022/01/14 15:03:55;;;;;;;13.57;1.35;;;;;;;;;;5073385;28;20048;-38
2022/01/14 15:06:21;;;;;;;2.58;1.92;;;;;;;;;;5074021;28;20016;-38
2022/01/14 15:08:46;;;;;;;2.45;1.25;;;;;;;;;;5073492;28;20356;-38
2022/01/14 15:11:12;;;;;;;4.10;2.10;;;;;;;;;;5073594;28;20028;-38
2022/01/14 15:13:40;;;;;;;4.03;2.20;;;;;;;;;;5073563;28;20025;-39
2022/01/14 15:18:40;;;;;;;4.03;1.65;;;;;;;;;;5073316;28;20036;-38
2022/01/14 15:21:06;;;;;;;1.60;1.20;;;;;;;;;;5073460;28;20061;-37